VOCC/COK METAR and TAF weather

Enter ICAO airport designator
Station Type Date Time Source
VOCC METAR 2021/09/16 18:00 UTC NOAA

VOCC 161800Z 11003KT 4500 BR SCT014 SCT080 26/25 Q1008 NOSIG


Station Type Date Time Source
VOCC Decoded METAR 2021/09/16 18:00 UTC NOAA

Cochin / Willingdon, India (VOCC) 09-57N 076-16E 3M
Sep 16, 2021 - 02:00 PM EDT / 2021.09.16 1800 UTC
Wind: from the ESE (110 degrees) at 3 MPH (3 KT):0
Visibility: 2 mile(s):0
Sky conditions: partly cloudy
Weather: mist
Temperature: 78 F (26 C)
Dew Point: 77 F (25 C)
Relative Humidity: 94%
Pressure (altimeter): 29.77 in. Hg (1008 hPa)
ob: VOCC 161800Z 11003KT 4500 BR SCT014 SCT080 26/25 Q1008 NOSIG
cycle: 18

Station Type Date Time Source
VOCC TAF 2021/04/17 00:00 UTC NOAA

TAF VOCC 162300Z 1700/1806 14006KT 4000 BR FEW016 SCT090
BECMG 1704/1706 34010KT 6000
TEMPO 1711/1716 09010G25KT 1000 TSRA RA SCT010 SCT014 FEW025CB BKN080
BECMG 1714/1716 14010KT 4000 BR SCT014 FEW025CB SCT090
BECMG 1804/1806 34010KT 6000

Example: see airport list